sensor_id;sensor_type;location;lat;lon;timestamp;pressure;altitude;pressure_sealevel;temperature;humidity
84936;BME280;75210;52.210;20.902;2024-02-04T00:00:50;99740.78;;;7.19;74.09
84936;BME280;75210;52.210;20.902;2024-02-04T00:01:50;99739.88;;;7.20;74.05
84936;BME280;75210;52.210;20.902;2024-02-04T00:02:51;99717.94;;;7.04;74.12
84936;BME280;75210;52.210;20.902;2024-02-04T00:03:51;99709.97;;;7.06;74.26
84936;BME280;75210;52.210;20.902;2024-02-04T00:04:52;99606.25;;;6.28;73.43
84936;BME280;75210;52.210;20.902;2024-02-04T00:05:54;99681.47;;;6.81;73.93
84936;BME280;75210;52.210;20.902;2024-02-04T00:06:54;99742.78;;;7.14;73.53
84936;BME280;75210;52.210;20.902;2024-02-04T00:07:55;99744.56;;;7.14;73.31
84936;BME280;75210;52.210;20.902;2024-02-04T00:08:55;99630.09;;;6.41;73.43
84936;BME280;75210;52.210;20.902;2024-02-04T00:09:55;99746.47;;;7.10;73.74
84936;BME280;75210;52.210;20.902;2024-02-04T00:10:57;99646.16;;;6.52;73.71
84936;BME280;75210;52.210;20.902;2024-02-04T00:11:57;99737.13;;;7.05;73.57
84936;BME280;75210;52.210;20.902;2024-02-04T00:12:57;99699.25;;;6.74;73.99
84936;BME280;75210;52.210;20.902;2024-02-04T00:13:58;99740.69;;;7.04;73.57
84936;BME280;75210;52.210;20.902;2024-02-04T00:14:58;99722.13;;;6.90;73.95
84936;BME280;75210;52.210;20.902;2024-02-04T00:15:59;99742.28;;;7.06;73.76
84936;BME280;75210;52.210;20.902;2024-02-04T00:16:59;99671.09;;;6.61;73.50
84936;BME280;75210;52.210;20.902;2024-02-04T00:18:00;99740.69;;;7.04;74.24
84936;BME280;75210;52.210;20.902;2024-02-04T00:19:00;99741.38;;;7.07;73.79
84936;BME280;75210;52.210;20.902;2024-02-04T00:20:01;99734.50;;;7.05;73.90
84936;BME280;75210;52.210;20.902;2024-02-04T00:21:03;99734.59;;;7.03;73.87
84936;BME280;75210;52.210;20.902;2024-02-04T00:22:03;99737.28;;;7.02;74.37
84936;BME280;75210;52.210;20.902;2024-02-04T00:23:04;99732.91;;;7.02;74.37
84936;BME280;75210;52.210;20.902;2024-02-04T00:24:04;99737.28;;;7.02;74.60
84936;BME280;75210;52.210;20.902;2024-02-04T00:25:05;99734.66;;;7.02;74.52
84936;BME280;75210;52.210;20.902;2024-02-04T00:26:06;99730.28;;;7.02;74.42
84936;BME280;75210;52.210;20.902;2024-02-04T00:27:06;99743.44;;;7.01;75.07
84936;BME280;75210;52.210;20.902;2024-02-04T00:28:07;99714.81;;;6.96;74.85
84936;BME280;75210;52.210;20.902;2024-02-04T00:29:07;99725.03;;;7.02;75.24
84936;BME280;75210;52.210;20.902;2024-02-04T00:30:08;99701.38;;;6.85;75.22
84936;BME280;75210;52.210;20.902;2024-02-04T00:31:09;99726.88;;;7.00;75.46
84936;BME280;75210;52.210;20.902;2024-02-04T00:32:09;99725.16;;;6.99;75.52
84936;BME280;75210;52.210;20.902;2024-02-04T00:33:09;99706.53;;;6.87;75.24
84936;BME280;75210;52.210;20.902;2024-02-04T00:34:10;99672.72;;;6.63;75.67
84936;BME280;75210;52.210;20.902;2024-02-04T00:35:10;99706.63;;;6.85;75.73
84936;BME280;75210;52.210;20.902;2024-02-04T00:36:12;99722.75;;;6.95;75.76
84936;BME280;75210;52.210;20.902;2024-02-04T00:37:12;99682.81;;;6.71;75.45
84936;BME280;75210;52.210;20.902;2024-02-04T00:38:13;99722.69;;;6.96;75.30
84936;BME280;75210;52.210;20.902;2024-02-04T00:39:13;99716.72;;;6.93;75.81
84936;BME280;75210;52.210;20.902;2024-02-04T00:40:14;99721.34;;;6.88;76.14
84936;BME280;75210;52.210;20.902;2024-02-04T00:41:14;99730.28;;;6.83;76.30
84936;BME280;75210;52.210;20.902;2024-02-04T00:42:15;99726.75;;;6.84;76.63
84936;BME280;75210;52.210;20.902;2024-02-04T00:43:15;99726.75;;;6.84;76.27
84936;BME280;75210;52.210;20.902;2024-02-04T00:44:15;99725.88;;;6.84;76.45
84936;BME280;75210;52.210;20.902;2024-02-04T00:45:16;99713.41;;;6.70;76.85
84936;BME280;75210;52.210;20.902;2024-02-04T00:46:16;99727.88;;;6.79;77.08
84936;BME280;75210;52.210;20.902;2024-02-04T00:47:17;99729.72;;;6.77;77.43
84936;BME280;75210;52.210;20.902;2024-02-04T00:48:17;99734.97;;;6.77;76.81
84936;BME280;75210;52.210;20.902;2024-02-04T00:49:17;99732.28;;;6.78;76.81
84936;BME280;75210;52.210;20.902;2024-02-04T00:50:18;99729.66;;;6.78;77.19
84936;BME280;75210;52.210;20.902;2024-02-04T00:51:20;99727.09;;;6.77;76.89
84936;BME280;75210;52.210;20.902;2024-02-04T00:52:20;99692.34;;;6.55;77.08
84936;BME280;75210;52.210;20.902;2024-02-04T00:53:21;99724.63;;;6.74;77.28
84936;BME280;75210;52.210;20.902;2024-02-04T00:54:21;99626.34;;;6.09;77.33
84936;BME280;75210;52.210;20.902;2024-02-04T00:55:22;99730.06;;;6.69;77.77
84936;BME280;75210;52.210;20.902;2024-02-04T00:56:22;99724.06;;;6.67;77.98
84936;BME280;75210;52.210;20.902;2024-02-04T00:57:22;99721.66;;;6.63;78.02
84936;BME280;75210;52.210;20.902;2024-02-04T00:58:23;99725.19;;;6.62;78.07
84936;BME280;75210;52.210;20.902;2024-02-04T00:59:23;99715.94;;;6.55;77.92
84936;BME280;75210;52.210;20.902;2024-02-04T01:00:24;99726.09;;;6.61;78.17
84936;BME280;75210;52.210;20.902;2024-02-04T01:01:25;99730.44;;;6.62;78.60
84936;BME280;75210;52.210;20.902;2024-02-04T01:02:25;99733.91;;;6.62;78.31
84936;BME280;75210;52.210;20.902;2024-02-04T01:03:26;99650.63;;;6.12;78.33
84936;BME280;75210;52.210;20.902;2024-02-04T01:04:26;99729.66;;;6.60;78.50
84936;BME280;75210;52.210;20.902;2024-02-04T01:05:26;99693.19;;;6.36;78.58
84936;BME280;75210;52.210;20.902;2024-02-04T01:06:28;99682.84;;;6.33;78.55
84936;BME280;75210;52.210;20.902;2024-02-04T01:07:28;99635.53;;;5.99;78.63
84936;BME280;75210;52.210;20.902;2024-02-04T01:08:29;99732.56;;;6.54;79.00
84936;BME280;75210;52.210;20.902;2024-02-04T01:09:29;99736.03;;;6.54;79.29
84936;BME280;75210;52.210;20.902;2024-02-04T01:10:30;99711.09;;;6.45;78.84
84936;BME280;75210;52.210;20.902;2024-02-04T01:11:30;99728.19;;;6.54;79.23
84936;BME280;75210;52.210;20.902;2024-02-04T01:12:30;99736.94;;;6.53;79.51
84936;BME280;75210;52.210;20.902;2024-02-04T01:13:31;99740.34;;;6.55;79.34
84936;BME280;75210;52.210;20.902;2024-02-04T01:14:31;99736.88;;;6.55;79.76
84936;BME280;75210;52.210;20.902;2024-02-04T01:15:32;99717.31;;;6.43;79.97
84936;BME280;75210;52.210;20.902;2024-02-04T01:16:34;99741.28;;;6.54;79.67
84936;BME280;75210;52.210;20.902;2024-02-04T01:17:34;99742.19;;;6.53;80.06
84936;BME280;75210;52.210;20.902;2024-02-04T01:18:34;99715.69;;;6.40;80.38
84936;BME280;75210;52.210;20.902;2024-02-04T01:19:35;99710.47;;;6.40;80.35
84936;BME280;75210;52.210;20.902;2024-02-04T01:20:35;99748.00;;;6.60;80.75
84936;BME280;75210;52.210;20.902;2024-02-04T01:21:37;99733.91;;;6.62;80.36
84936;BME280;75210;52.210;20.902;2024-02-04T01:22:37;99745.31;;;6.61;80.52
84936;BME280;75210;52.210;20.902;2024-02-04T01:23:38;99743.41;;;6.65;80.35
84936;BME280;75210;52.210;20.902;2024-02-04T01:24:38;99736.31;;;6.67;80.35
84936;BME280;75210;52.210;20.902;2024-02-04T01:25:39;99738.22;;;6.63;80.39
84936;BME280;75210;52.210;20.902;2024-02-04T01:26:39;99739.16;;;6.62;80.82
84936;BME280;75210;52.210;20.902;2024-02-04T01:27:39;99736.66;;;6.59;80.97
84936;BME280;75210;52.210;20.902;2024-02-04T01:28:40;99738.16;;;6.65;80.80
84936;BME280;75210;52.210;20.902;2024-02-04T01:29:40;99740.06;;;6.61;81.21
84936;BME280;75210;52.210;20.902;2024-02-04T01:30:41;99612.56;;;5.85;80.88
84936;BME280;75210;52.210;20.902;2024-02-04T01:31:41;99739.16;;;6.62;80.84
84936;BME280;75210;52.210;20.902;2024-02-04T01:32:42;99750.47;;;6.63;80.92
84936;BME280;75210;52.210;20.902;2024-02-04T01:33:42;99637.97;;;6.03;81.08
84936;BME280;75210;52.210;20.902;2024-02-04T01:34:42;99740.72;;;6.66;81.19
84936;BME280;75210;52.210;20.902;2024-02-04T01:35:43;99715.28;;;6.49;81.00
84936;BME280;75210;52.210;20.902;2024-02-04T01:36:45;99639.66;;;6.04;80.95
84936;BME280;75210;52.210;20.902;2024-02-04T01:37:45;99737.25;;;6.66;81.35
84936;BME280;75210;52.210;20.902;2024-02-04T01:38:45;99716.19;;;6.48;80.91
84936;BME280;75210;52.210;20.902;2024-02-04T01:39:46;99737.38;;;6.63;81.29
84936;BME280;75210;52.210;20.902;2024-02-04T01:40:46;99745.09;;;6.66;81.19
84936;BME280;75210;52.210;20.902;2024-02-04T01:41:47;99752.03;;;6.67;80.86
84936;BME280;75210;52.210;20.902;2024-02-04T01:42:47;99733.84;;;6.64;80.80
84936;BME280;75210;52.210;20.902;2024-02-04T01:43:47;99739.69;;;6.69;81.04
84936;BME280;75210;52.210;20.902;2024-02-04T01:44:48;99743.88;;;6.73;80.70
84936;BME280;75210;52.210;20.902;2024-02-04T01:45:50;99742.03;;;6.75;80.83
84936;BME280;75210;52.210;20.902;2024-02-04T01:46:50;99731.50;;;6.76;80.56
84936;BME280;75210;52.210;20.902;2024-02-04T01:47:51;99728.88;;;6.76;80.81
84936;BME280;75210;52.210;20.902;2024-02-04T01:48:51;99731.56;;;6.75;81.03
84936;BME280;75210;52.210;20.902;2024-02-04T01:49:52;99695.09;;;6.52;81.11
84936;BME280;75210;52.210;20.902;2024-02-04T01:50:53;99692.41;;;6.53;80.86
84936;BME280;75210;52.210;20.902;2024-02-04T01:51:56;99706.00;;;6.61;81.32
84936;BME280;75210;52.210;20.902;2024-02-04T01:52:57;99723.84;;;6.72;80.99
84936;BME280;75210;52.210;20.902;2024-02-04T01:53:58;99722.19;;;6.69;81.42
84936;BME280;75210;52.210;20.902;2024-02-04T01:54:59;99711.88;;;6.66;81.49
84936;BME280;75210;52.210;20.902;2024-02-04T01:56:00;99643.31;;;6.19;81.15
84936;BME280;75210;52.210;20.902;2024-02-04T01:57:02;99704.22;;;6.62;81.73
84936;BME280;75210;52.210;20.902;2024-02-04T01:58:03;99707.69;;;6.62;81.72
84936;BME280;75210;52.210;20.902;2024-02-04T01:59:03;99702.38;;;6.64;81.67
84936;BME280;75210;52.210;20.902;2024-02-04T02:00:05;99676.75;;;6.52;81.33
84936;BME280;75210;52.210;20.902;2024-02-04T02:01:06;99700.69;;;6.63;81.77
84936;BME280;75210;52.210;20.902;2024-02-04T02:02:06;99707.63;;;6.64;81.67
84936;BME280;75210;52.210;20.902;2024-02-04T02:03:06;99709.47;;;6.62;82.00
84936;BME280;75210;52.210;20.902;2024-02-04T02:04:08;99714.06;;;6.57;81.85
84936;BME280;75210;52.210;20.902;2024-02-04T02:05:09;99713.31;;;6.55;82.22
84936;BME280;75210;52.210;20.902;2024-02-04T02:06:10;99652.13;;;6.18;82.14
84936;BME280;75210;52.210;20.902;2024-02-04T02:07:12;99675.75;;;6.35;82.16
84936;BME280;75210;52.210;20.902;2024-02-04T02:08:12;99721.91;;;6.57;82.21
84936;BME280;75210;52.210;20.902;2024-02-04T02:09:13;99705.06;;;6.43;81.88
84936;BME280;75210;52.210;20.902;2024-02-04T02:10:14;99730.50;;;6.60;82.11
84936;BME280;75210;52.210;20.902;2024-02-04T02:11:19;99726.97;;;6.61;82.27
84936;BME280;75210;52.210;20.902;2024-02-04T02:12:24;99723.41;;;6.62;82.24
84936;BME280;75210;52.210;20.902;2024-02-04T02:13:29;99727.81;;;6.62;82.18
84936;BME280;75210;52.210;20.902;2024-02-04T02:14:33;99706.84;;;6.62;82.02
84936;BME280;75210;52.210;20.902;2024-02-04T02:15:42;99677.81;;;6.47;81.53
84936;BME280;75210;52.210;20.902;2024-02-04T02:16:45;99696.50;;;6.59;81.99
84936;BME280;75210;52.210;20.902;2024-02-04T02:17:51;99707.50;;;6.67;81.46
84936;BME280;75210;52.210;20.902;2024-02-04T02:18:59;99666.84;;;6.39;81.82
84936;BME280;75210;52.210;20.902;2024-02-04T02:20:03;99713.66;;;6.66;81.83
84936;BME280;75210;52.210;20.902;2024-02-04T02:21:16;99707.41;;;6.68;81.58
84936;BME280;75210;52.210;20.902;2024-02-04T02:22:27;99615.81;;;6.10;81.54
84936;BME280;75210;52.210;20.902;2024-02-04T02:23:30;99553.00;;;5.71;81.26
84936;BME280;75210;52.210;20.902;2024-02-04T02:24:34;99705.63;;;6.69;81.69
84936;BME280;75210;52.210;20.902;2024-02-04T02:25:36;99661.31;;;6.45;81.20
84936;BME280;75210;52.210;20.902;2024-02-04T02:26:38;99694.88;;;6.75;81.23
84936;BME280;75210;52.210;20.902;2024-02-04T02:27:46;99643.88;;;6.44;80.99
84936;BME280;75210;52.210;20.902;2024-02-04T02:28:46;99693.94;;;6.76;80.78
84936;BME280;75210;52.210;20.902;2024-02-04T02:29:47;99704.38;;;6.77;80.67
84936;BME280;75210;52.210;20.902;2024-02-04T02:30:47;99694.72;;;6.78;80.77
84936;BME280;75210;52.210;20.902;2024-02-04T02:31:47;99697.34;;;6.78;80.66
84936;BME280;75210;52.210;20.902;2024-02-04T02:32:48;99705.22;;;6.78;80.56
84936;BME280;75210;52.210;20.902;2024-02-04T02:33:49;99702.53;;;6.79;80.28
84936;BME280;75210;52.210;20.902;2024-02-04T02:34:50;99668.53;;;6.59;80.42
84936;BME280;75210;52.210;20.902;2024-02-04T02:35:53;99698.69;;;6.87;80.10
84936;BME280;75210;52.210;20.902;2024-02-04T02:36:59;99698.81;;;6.83;80.53
84936;BME280;75210;52.210;20.902;2024-02-04T02:38:07;99692.72;;;6.83;79.93
84936;BME280;75210;52.210;20.902;2024-02-04T02:39:12;99698.63;;;6.88;79.98
84936;BME280;75210;52.210;20.902;2024-02-04T02:40:21;99647.63;;;6.58;79.88
84936;BME280;75210;52.210;20.902;2024-02-04T02:41:23;99688.91;;;6.90;79.68
84936;BME280;75210;52.210;20.902;2024-02-04T02:42:25;99691.53;;;6.90;79.69
84936;BME280;75210;52.210;20.902;2024-02-04T02:43:26;99697.56;;;6.92;79.87
84936;BME280;75210;52.210;20.902;2024-02-04T02:44:28;99699.16;;;6.95;79.43
84936;BME280;75210;52.210;20.902;2024-02-04T02:45:29;99683.03;;;6.85;79.31
84936;BME280;75210;52.210;20.902;2024-02-04T02:46:30;99695.84;;;6.91;79.14
84936;BME280;75210;52.210;20.902;2024-02-04T02:47:31;99607.66;;;6.35;79.18
84936;BME280;75210;52.210;20.902;2024-02-04T02:48:32;99705.97;;;6.99;79.07
84936;BME280;75210;52.210;20.902;2024-02-04T02:49:32;99705.03;;;7.00;79.11
84936;BME280;75210;52.210;20.902;2024-02-04T02:50:33;99647.28;;;6.65;78.81
84936;BME280;75210;52.210;20.902;2024-02-04T02:51:33;99707.53;;;7.03;78.93
84936;BME280;75210;52.210;20.902;2024-02-04T02:52:34;99710.06;;;7.04;78.50
84936;BME280;75210;52.210;20.902;2024-02-04T02:53:34;99711.06;;;7.02;78.42
84936;BME280;75210;52.210;20.902;2024-02-04T02:54:34;99688.91;;;6.90;78.24
84936;BME280;75210;52.210;20.902;2024-02-04T02:55:36;99702.28;;;7.03;78.75
84936;BME280;75210;52.210;20.902;2024-02-04T02:56:37;99707.59;;;7.01;78.73
84936;BME280;75210;52.210;20.902;2024-02-04T02:57:37;99704.91;;;7.03;78.68
84936;BME280;75210;52.210;20.902;2024-02-04T02:58:37;99704.97;;;7.01;78.01
84936;BME280;75210;52.210;20.902;2024-02-04T02:59:38;99669.84;;;6.87;78.52
84936;BME280;75210;52.210;20.902;2024-02-04T03:00:38;99708.97;;;7.08;78.23
84936;BME280;75210;52.210;20.902;2024-02-04T03:01:39;99717.84;;;7.06;77.93
84936;BME280;75210;52.210;20.902;2024-02-04T03:02:39;99609.63;;;6.49;78.13
84936;BME280;75210;52.210;20.902;2024-02-04T03:03:40;99704.72;;;7.06;77.65
84936;BME280;75210;52.210;20.902;2024-02-04T03:04:40;99707.53;;;7.03;77.55
84936;BME280;75210;52.210;20.902;2024-02-04T03:05:41;99711.59;;;7.08;77.43
84936;BME280;75210;52.210;20.902;2024-02-04T03:06:41;99708.06;;;7.09;77.44
84936;BME280;75210;52.210;20.902;2024-02-04T03:07:41;99712.47;;;7.09;77.35
84936;BME280;75210;52.210;20.902;2024-02-04T03:08:42;99708.97;;;7.08;77.23
84936;BME280;75210;52.210;20.902;2024-02-04T03:09:42;99712.38;;;7.10;77.62
84936;BME280;75210;52.210;20.902;2024-02-04T03:10:44;99667.94;;;6.90;77.09
84936;BME280;75210;52.210;20.902;2024-02-04T03:11:44;99694.09;;;7.09;77.22
84936;BME280;75210;52.210;20.902;2024-02-04T03:12:45;99700.75;;;7.16;77.23
84936;BME280;75210;52.210;20.902;2024-02-04T03:13:45;99692.13;;;7.14;77.35
84936;BME280;75210;52.210;20.902;2024-02-04T03:14:45;99678.81;;;7.00;76.73
84936;BME280;75210;52.210;20.902;2024-02-04T03:15:46;99694.75;;;7.14;76.98
84936;BME280;75210;52.210;20.902;2024-02-04T03:16:46;99693.19;;;7.10;76.79
84936;BME280;75210;52.210;20.902;2024-02-04T03:17:47;99707.28;;;7.07;76.65
84936;BME280;75210;52.210;20.902;2024-02-04T03:18:47;99699.28;;;7.10;76.98
84936;BME280;75210;52.210;20.902;2024-02-04T03:19:48;99703.53;;;7.13;76.42
84936;BME280;75210;52.210;20.902;2024-02-04T03:20:48;99700.19;;;7.09;76.50
84936;BME280;75210;52.210;20.902;2024-02-04T03:21:48;99703.88;;;7.05;76.32
84936;BME280;75210;52.210;20.902;2024-02-04T03:22:49;99670.97;;;6.81;76.69
84936;BME280;75210;52.210;20.902;2024-02-04T03:23:49;99691.63;;;7.06;76.28
84936;BME280;75210;52.210;20.902;2024-02-04T03:24:50;99693.25;;;7.08;76.69
84936;BME280;75210;52.210;20.902;2024-02-04T03:25:52;99695.78;;;7.10;76.04
84936;BME280;75210;52.210;20.902;2024-02-04T03:26:52;99700.25;;;7.08;75.93
84936;BME280;75210;52.210;20.902;2024-02-04T03:27:52;99672.16;;;6.93;75.74
84936;BME280;75210;52.210;20.902;2024-02-04T03:28:53;99704.53;;;7.10;75.74
84936;BME280;75210;52.210;20.902;2024-02-04T03:29:53;99708.00;;;7.11;75.95
84936;BME280;75210;52.210;20.902;2024-02-04T03:30:53;99609.56;;;6.51;75.43
84936;BME280;75210;52.210;20.902;2024-02-04T03:31:56;99705.56;;;7.06;75.73
84936;BME280;75210;52.210;20.902;2024-02-04T03:32:56;99693.00;;;6.96;75.95
84936;BME280;75210;52.210;20.902;2024-02-04T03:33:56;99706.59;;;7.04;75.71
84936;BME280;75210;52.210;20.902;2024-02-04T03:34:57;99710.06;;;7.04;75.33
84936;BME280;75210;52.210;20.902;2024-02-04T03:35:57;99717.16;;;7.02;75.25
84936;BME280;75210;52.210;20.902;2024-02-04T03:36:58;99708.44;;;7.02;75.06
84936;BME280;75210;52.210;20.902;2024-02-04T03:37:58;99723.31;;;7.01;75.35
84936;BME280;75210;52.210;20.902;2024-02-04T03:38:58;99687.63;;;6.80;73.97
84936;BME280;75210;52.210;20.902;2024-02-04T03:39:59;99720.13;;;6.95;74.69
84936;BME280;75210;52.210;20.902;2024-02-04T03:41:01;99706.16;;;6.94;74.63
84936;BME280;75210;52.210;20.902;2024-02-04T03:42:01;99716.38;;;7.00;74.94
84936;BME280;75210;52.210;20.902;2024-02-04T03:43:01;99711.91;;;7.02;74.35
84936;BME280;75210;52.210;20.902;2024-02-04T03:44:02;99682.88;;;6.88;74.18
84936;BME280;75210;52.210;20.902;2024-02-04T03:45:03;99706.66;;;7.02;74.25
84936;BME280;75210;52.210;20.902;2024-02-04T03:46:03;99705.81;;;7.02;73.99
84936;BME280;75210;52.210;20.902;2024-02-04T03:47:04;99695.34;;;7.02;73.85
84936;BME280;75210;52.210;20.902;2024-02-04T03:48:05;99688.31;;;7.02;74.45
84936;BME280;75210;52.210;20.902;2024-02-04T03:49:05;99681.03;;;6.90;73.96
84936;BME280;75210;52.210;20.902;2024-02-04T03:50:06;99697.38;;;6.95;74.16
84936;BME280;75210;52.210;20.902;2024-02-04T03:51:07;99690.50;;;6.93;74.09
84936;BME280;75210;52.210;20.902;2024-02-04T03:52:07;99709.72;;;6.93;74.32
84936;BME280;75210;52.210;20.902;2024-02-04T03:53:08;99679.69;;;6.81;74.20
84936;BME280;75210;52.210;20.902;2024-02-04T03:54:08;99685.16;;;6.77;74.69
84936;BME280;75210;52.210;20.902;2024-02-04T03:55:09;99718.44;;;6.94;74.33
84936;BME280;75210;52.210;20.902;2024-02-04T03:56:11;99728.22;;;6.90;74.14
84936;BME280;75210;52.210;20.902;2024-02-04T03:57:11;99666.28;;;6.52;74.52
84936;BME280;75210;52.210;20.902;2024-02-04T03:58:11;99655.22;;;6.45;74.95
84936;BME280;75210;52.210;20.902;2024-02-04T03:59:12;99705.63;;;6.69;75.00
84936;BME280;75210;52.210;20.902;2024-02-04T04:00:13;99723.84;;;6.91;75.05
84936;BME280;75210;52.210;20.902;2024-02-04T04:01:13;99719.28;;;6.94;74.49
84936;BME280;75210;52.210;20.902;2024-02-04T04:02:14;99688.41;;;6.82;74.68
84936;BME280;75210;52.210;20.902;2024-02-04T04:03:14;99690.75;;;6.88;74.29
84936;BME280;75210;52.210;20.902;2024-02-04T04:04:14;99689.19;;;6.84;74.71
84936;BME280;75210;52.210;20.902;2024-02-04T04:05:15;99694.28;;;6.87;74.16
84936;BME280;75210;52.210;20.902;2024-02-04T04:06:15;99715.72;;;6.95;74.69
84936;BME280;75210;52.210;20.902;2024-02-04T04:07:16;99703.34;;;6.80;74.53
84936;BME280;75210;52.210;20.902;2024-02-04T04:08:16;99601.16;;;6.25;74.42
84936;BME280;75210;52.210;20.902;2024-02-04T04:09:17;99711.41;;;6.94;74.55
84936;BME280;75210;52.210;20.902;2024-02-04T04:10:17;99700.53;;;6.84;73.92
84936;BME280;75210;52.210;20.902;2024-02-04T04:11:19;99721.75;;;6.97;74.11
84936;BME280;75210;52.210;20.902;2024-02-04T04:12:19;99646.31;;;6.49;73.94
84936;BME280;75210;52.210;20.902;2024-02-04T04:13:19;99725.31;;;6.96;73.93
84936;BME280;75210;52.210;20.902;2024-02-04T04:14:20;99701.56;;;6.80;74.29
84936;BME280;75210;52.210;20.902;2024-02-04T04:15:20;99702.44;;;6.81;74.26
84936;BME280;75210;52.210;20.902;2024-02-04T04:16:21;99720.97;;;6.95;73.90
84936;BME280;75210;52.210;20.902;2024-02-04T04:17:22;99717.28;;;6.99;73.67
84936;BME280;75210;52.210;20.902;2024-02-04T04:18:22;99727.00;;;6.97;74.23
84936;BME280;75210;52.210;20.902;2024-02-04T04:19:22;99699.97;;;6.78;73.62
84936;BME280;75210;52.210;20.902;2024-02-04T04:20:23;99724.75;;;6.90;73.52
84936;BME280;75210;52.210;20.902;2024-02-04T04:21:23;99687.28;;;6.69;73.48
84936;BME280;75210;52.210;20.902;2024-02-04T04:22:24;99722.91;;;6.92;73.01
84936;BME280;75210;52.210;20.902;2024-02-04T04:23:24;99719.22;;;6.96;72.94
84936;BME280;75210;52.210;20.902;2024-02-04T04:24:25;99727.94;;;6.96;72.75
84936;BME280;75210;52.210;20.902;2024-02-04T04:25:25;99718.34;;;6.95;70.98
84936;BME280;75210;52.210;20.902;2024-02-04T04:26:27;99691.78;;;6.67;71.37
84936;BME280;75210;52.210;20.902;2024-02-04T04:27:27;99713.94;;;6.78;70.97
84936;BME280;75210;52.210;20.902;2024-02-04T04:28:27;99717.41;;;6.79;70.89
84936;BME280;75210;52.210;20.902;2024-02-04T04:29:28;99743.03;;;6.72;70.53
84936;BME280;75210;52.210;20.902;2024-02-04T04:30:28;99724.13;;;6.66;69.80
84936;BME280;75210;52.210;20.902;2024-02-04T04:31:29;99745.38;;;6.60;69.29
84936;BME280;75210;52.210;20.902;2024-02-04T04:32:29;99747.28;;;6.56;68.95
84936;BME280;75210;52.210;20.902;2024-02-04T04:33:29;99747.50;;;6.52;69.59
84936;BME280;75210;52.210;20.902;2024-02-04T04:34:30;99755.84;;;6.41;69.54
84936;BME280;75210;52.210;20.902;2024-02-04T04:35:30;99748.13;;;6.38;69.96
84936;BME280;75210;52.210;20.902;2024-02-04T04:36:31;99745.84;;;6.30;71.43
84936;BME280;75210;52.210;20.902;2024-02-04T04:37:31;99732.44;;;6.18;72.42
84936;BME280;75210;52.210;20.902;2024-02-04T04:38:31;99733.06;;;6.04;73.24
84936;BME280;75210;52.210;20.902;2024-02-04T04:39:32;99739.41;;;5.98;73.12
84936;BME280;75210;52.210;20.902;2024-02-04T04:40:32;99712.88;;;5.86;73.41
84936;BME280;75210;52.210;20.902;2024-02-04T04:41:35;99744.06;;;5.92;73.60
84936;BME280;75210;52.210;20.902;2024-02-04T04:42:36;99657.28;;;5.40;74.24
84936;BME280;75210;52.210;20.902;2024-02-04T04:43:36;99747.59;;;5.91;74.44
84936;BME280;75210;52.210;20.902;2024-02-04T04:44:37;99744.97;;;5.91;74.73
84936;BME280;75210;52.210;20.902;2024-02-04T04:45:38;99746.81;;;5.89;74.99
84936;BME280;75210;52.210;20.902;2024-02-04T04:46:38;99740.88;;;5.84;74.82
84936;BME280;75210;52.210;20.902;2024-02-04T04:47:39;99746.09;;;5.84;75.28
84936;BME280;75210;52.210;20.902;2024-02-04T04:48:39;99753.16;;;5.82;75.64
84936;BME280;75210;52.210;20.902;2024-02-04T04:49:40;99744.47;;;5.81;75.65
84936;BME280;75210;52.210;20.902;2024-02-04T04:50:40;99742.69;;;5.82;75.35
84936;BME280;75210;52.210;20.902;2024-02-04T04:51:44;99728.31;;;5.71;75.27
84936;BME280;75210;52.210;20.902;2024-02-04T04:52:44;99747.00;;;5.83;75.31
84936;BME280;75210;52.210;20.902;2024-02-04T04:53:45;99716.13;;;5.70;75.69
84936;BME280;75210;52.210;20.902;2024-02-04T04:54:45;99758.13;;;5.89;75.35
84936;BME280;75210;52.210;20.902;2024-02-04T04:55:45;99743.34;;;5.88;75.49
84936;BME280;75210;52.210;20.902;2024-02-04T04:56:47;99648.91;;;5.32;75.44
84936;BME280;75210;52.210;20.902;2024-02-04T04:57:48;99624.28;;;5.17;75.58
84936;BME280;75210;52.210;20.902;2024-02-04T04:58:48;99738.09;;;5.88;75.50
84936;BME280;75210;52.210;20.902;2024-02-04T04:59:48;99758.50;;;6.00;75.41
84936;BME280;75210;52.210;20.902;2024-02-04T05:00:49;99743.06;;;5.94;75.18
84936;BME280;75210;52.210;20.902;2024-02-04T05:01:49;99744.97;;;5.91;74.96
84936;BME280;75210;52.210;20.902;2024-02-04T05:02:50;99763.69;;;6.02;75.32
84936;BME280;75210;52.210;20.902;2024-02-04T05:03:50;99771.66;;;5.99;75.59
84936;BME280;75210;52.210;20.902;2024-02-04T05:04:51;99731.53;;;5.78;75.54
84936;BME280;75210;52.210;20.902;2024-02-04T05:05:51;99740.59;;;5.91;75.76
84936;BME280;75210;52.210;20.902;2024-02-04T05:06:52;99768.06;;;6.01;75.71
84936;BME280;75210;52.210;20.902;2024-02-04T05:07:52;99766.53;;;5.96;75.76
84936;BME280;75210;52.210;20.902;2024-02-04T05:08:52;99767.41;;;5.96;75.83
84936;BME280;75210;52.210;20.902;2024-02-04T05:09:53;99705.03;;;5.65;75.89
84936;BME280;75210;52.210;20.902;2024-02-04T05:10:53;99760.34;;;5.98;76.10
84936;BME280;75210;52.210;20.902;2024-02-04T05:11:55;99755.94;;;5.99;75.99
84936;BME280;75210;52.210;20.902;2024-02-04T05:12:55;99760.28;;;6.00;75.71
84936;BME280;75210;52.210;20.902;2024-02-04T05:13:56;99745.41;;;6.00;75.36
84936;BME280;75210;52.210;20.902;2024-02-04T05:14:56;99703.00;;;5.72;75.19
84936;BME280;75210;52.210;20.902;2024-02-04T05:15:56;99734.56;;;5.89;74.72
84936;BME280;75210;52.210;20.902;2024-02-04T05:16:57;99745.22;;;6.05;75.36
84936;BME280;75210;52.210;20.902;2024-02-04T05:17:57;99617.91;;;5.23;74.79
84936;BME280;75210;52.210;20.902;2024-02-04T05:18:58;99749.28;;;5.92;73.93
84936;BME280;75210;52.210;20.902;2024-02-04T05:19:58;99763.75;;;6.00;74.15
84936;BME280;75210;52.210;20.902;2024-02-04T05:21:00;99706.72;;;5.66;73.84
84936;BME280;75210;52.210;20.902;2024-02-04T05:22:01;99761.97;;;6.01;74.74
84936;BME280;75210;52.210;20.902;2024-02-04T05:23:01;99776.03;;;5.98;74.51